createdAt,value
2023-01-13T00:01:16.331Z,97644.81
2023-01-13T00:03:43.899Z,97645.41
2023-01-13T00:06:18.656Z,97654.81
2023-01-13T00:08:49.019Z,97647.34
2023-01-13T00:11:16.056Z,97652.47
2023-01-13T00:13:43.039Z,97660.28
2023-01-13T00:16:15.680Z,97655.72
2023-01-13T00:18:43.609Z,97653.28
2023-01-13T00:21:30.412Z,97660.84
2023-01-13T00:23:57.141Z,97657.97
2023-01-13T00:26:26.333Z,97663.91
2023-01-13T00:29:00.662Z,97673.03
2023-01-13T00:31:28.766Z,97672.75
2023-01-13T00:34:00.052Z,97667.16
2023-01-13T00:36:28.159Z,97664.47
2023-01-13T00:38:54.824Z,97660.41
2023-01-13T00:41:23.399Z,97674.16
2023-01-13T00:43:50.811Z,97669.94
2023-01-13T00:46:20.313Z,97676.91
2023-01-13T00:48:47.775Z,97664.81
2023-01-13T00:51:20.088Z,97670.72
2023-01-13T00:53:49.799Z,97665.63
2023-01-13T00:56:39.275Z,97662.94
2023-01-13T00:59:11.093Z,97658.38
2023-01-13T01:01:38.727Z,97655.09
2023-01-13T01:04:05.665Z,97662.13
2023-01-13T01:06:32.422Z,97659.09
2023-01-13T01:08:59.629Z,97654.22
2023-01-13T01:11:29.166Z,97644.53
2023-01-13T01:13:57.570Z,97648.25
2023-01-13T01:16:30.613Z,97652.78
2023-01-13T01:18:57.534Z,97654.44
2023-01-13T01:21:26.236Z,97642.88
2023-01-13T01:23:53.385Z,97651.97
2023-01-13T01:26:22.778Z,97639.03
2023-01-13T01:28:49.807Z,97632.03
2023-01-13T01:31:23.352Z,97621.94
2023-01-13T01:33:50.975Z,97633.09
2023-01-13T01:36:19.774Z,97633.34
2023-01-13T01:38:47.345Z,97637.09
2023-01-13T01:41:22.804Z,97641.06
2023-01-13T01:44:04.518Z,97634.06
2023-01-13T01:46:34.144Z,97629.75
2023-01-13T01:49:19.958Z,97632.44
2023-01-13T01:51:54.606Z,97625.44
2023-01-13T01:54:50.964Z,97618.22
2023-01-13T01:57:23.403Z,97626.28
2023-01-13T01:59:50.340Z,97627.06
2023-01-13T02:02:17.865Z,97629.75
2023-01-13T02:04:53.339Z,97628.13
2023-01-13T02:07:25.452Z,97627.56
2023-01-13T02:09:55.478Z,97631.31
2023-01-13T02:12:32.583Z,97629.09
2023-01-13T02:15:12.200Z,97620.25
2023-01-13T02:18:18.184Z,97616.16
2023-01-13T02:21:09.635Z,97620.13
2023-01-13T02:24:03.162Z,97615.03
2023-01-13T02:27:00.714Z,97615.03
2023-01-13T02:29:52.278Z,97612.88
2023-01-13T02:32:43.879Z,97612.56
2023-01-13T02:35:26.371Z,97616.91
2023-01-13T02:37:54.881Z,97614.44
2023-01-13T02:40:34.780Z,97614.44
2023-01-13T02:43:26.165Z,97610.13
2023-01-13T02:45:58.990Z,97607.38
2023-01-13T02:48:29.762Z,97596.44
2023-01-13T02:51:19.179Z,97613.09
2023-01-13T02:54:03.808Z,97614.75
2023-01-13T02:56:34.556Z,97617.78
2023-01-13T02:59:02.266Z,97617.03
2023-01-13T03:01:29.042Z,97620.06
2023-01-13T03:03:55.848Z,97621.19
2023-01-13T03:06:47.571Z,97609.97
2023-01-13T03:09:33.119Z,97623.72
2023-01-13T03:12:21.277Z,97621.59
2023-01-13T03:15:04.823Z,97621.13
2023-01-13T03:17:50.189Z,97622.75
2023-01-13T03:20:26.771Z,97629.50
2023-01-13T03:23:09.439Z,97637.34
2023-01-13T03:25:48.034Z,97628.44
2023-01-13T03:28:25.990Z,97630.91
2023-01-13T03:31:05.141Z,97630.66
2023-01-13T03:33:37.558Z,97630.44
2023-01-13T03:36:08.932Z,97634.16
2023-01-13T03:38:46.717Z,97634.16
2023-01-13T03:41:46.609Z,97627.16
2023-01-13T03:44:24.333Z,97628.22
2023-01-13T03:47:18.180Z,97630.31
2023-01-13T03:49:44.808Z,97624.94
2023-01-13T03:52:18.549Z,97627.63
2023-01-13T03:54:53.631Z,97624.41
2023-01-13T03:57:26.224Z,97625.75
2023-01-13T03:59:56.513Z,97625.19
2023-01-13T04:03:03.849Z,97632.78
2023-01-13T04:05:31.625Z,97630.31
2023-01-13T04:08:13.234Z,97623.81
2023-01-13T04:10:52.969Z,97623.81
2023-01-13T04:13:23.553Z,97631.88
2023-01-13T04:15:50.828Z,97634.53
2023-01-13T04:18:30.666Z,97632.44
2023-01-13T04:20:59.511Z,97634.00
2023-01-13T04:23:27.999Z,97643.19
2023-01-13T04:25:55.370Z,97636.69
2023-01-13T04:28:22.524Z,97643.53
2023-01-13T04:30:49.588Z,97644.31
2023-01-13T04:33:18.023Z,97644.31
2023-01-13T04:35:46.195Z,97645.41
2023-01-13T04:38:20.063Z,97648.88
2023-01-13T04:40:47.055Z,97647.50
2023-01-13T04:43:15.712Z,97651.25
2023-01-13T04:45:43.358Z,97648.78
2023-01-13T04:48:10.751Z,97654.41
2023-01-13T04:50:37.375Z,97661.88
2023-01-13T04:53:04.324Z,97660.50
2023-01-13T04:55:31.887Z,97663.19
2023-01-13T04:58:06.817Z,97654.34
2023-01-13T05:00:33.881Z,97655.38
2023-01-13T05:03:01.033Z,97662.13
2023-01-13T05:05:29.485Z,97671.00
2023-01-13T05:07:56.273Z,97674.28
2023-01-13T05:10:24.076Z,97667.84
2023-01-13T05:13:09.627Z,97669.22
2023-01-13T05:15:54.944Z,97671.06
2023-01-13T05:18:21.741Z,97674.59
2023-01-13T05:20:49.576Z,97679.63
2023-01-13T05:23:34.819Z,97677.44
2023-01-13T05:26:01.556Z,97685.97
2023-01-13T05:28:32.290Z,97684.56
2023-01-13T05:30:59.595Z,97676.19
2023-01-13T05:33:26.538Z,97679.03
2023-01-13T05:35:53.126Z,97692.69
2023-01-13T05:38:19.915Z,97688.03
2023-01-13T05:41:05.198Z,97694.69
2023-01-13T05:43:33.236Z,97687.09
2023-01-13T05:46:02.461Z,97690.38
2023-01-13T05:48:32.351Z,97691.78
2023-01-13T05:50:59.478Z,97683.47
2023-01-13T05:53:26.711Z,97687.91
2023-01-13T05:55:53.581Z,97690.06
2023-01-13T05:58:22.809Z,97685.28
2023-01-13T06:00:50.250Z,97685.88
2023-01-13T06:03:20.068Z,97689.38
2023-01-13T06:05:48.189Z,97685.38
2023-01-13T06:08:14.932Z,97690.28
2023-01-13T06:10:41.497Z,97686.56
2023-01-13T06:13:08.182Z,97691.66
2023-01-13T06:15:35.080Z,97686.28
2023-01-13T06:18:05.036Z,97690.38
2023-01-13T06:20:32.588Z,97696.31
2023-01-13T06:22:59.704Z,97698.19
2023-01-13T06:25:50.959Z,97704.38
2023-01-13T06:28:17.606Z,97708.09
2023-01-13T06:30:50.955Z,97712.41
2023-01-13T06:33:24.699Z,97706.25
2023-01-13T06:36:00.988Z,97707.63
2023-01-13T06:38:30.002Z,97711.69
2023-01-13T06:40:56.682Z,97707.38
2023-01-13T06:43:23.305Z,97704.38
2023-01-13T06:45:53.462Z,97713.16
2023-01-13T06:48:24.662Z,97709.31
2023-01-13T06:50:51.389Z,97703.94
2023-01-13T06:53:18.085Z,97706.63
2023-01-13T06:55:44.759Z,97707.09
2023-01-13T06:58:11.449Z,97702.53
2023-01-13T07:00:38.624Z,97709.06
2023-01-13T07:03:07.679Z,97709.31
2023-01-13T07:05:34.511Z,97711.75
2023-01-13T07:08:01.531Z,97714.22
2023-01-13T07:10:28.379Z,97716.09
2023-01-13T07:13:13.818Z,97717.94
2023-01-13T07:15:40.611Z,97718.78
2023-01-13T07:18:07.580Z,97717.69
2023-01-13T07:20:34.391Z,97717.22
2023-01-13T07:23:01.021Z,97718.03
2023-01-13T07:25:28.026Z,97719.66
2023-01-13T07:27:57.487Z,97718.59
2023-01-13T07:30:24.116Z,97718.38
2023-01-13T07:32:50.750Z,97718.38
2023-01-13T07:35:22.048Z,97721.63
2023-01-13T07:37:49.018Z,97716.84
2023-01-13T07:40:15.760Z,97721.94
2023-01-13T07:43:01.468Z,97725.22
2023-01-13T07:45:28.494Z,97732.00
2023-01-13T07:47:55.167Z,97723.09
2023-01-13T07:50:23.861Z,97726.63
2023-01-13T07:52:51.196Z,97722.88
2023-01-13T07:55:17.857Z,97728.84
2023-01-13T07:57:44.698Z,97727.53
2023-01-13T08:00:12.977Z,97728.94
2023-01-13T08:02:39.885Z,97728.94
2023-01-13T08:05:13.890Z,97726.00
2023-01-13T08:07:40.599Z,97726.34
2023-01-13T08:10:07.750Z,97722.59
2023-01-13T08:12:59.749Z,97733.44
2023-01-13T08:15:32.684Z,97737.25
2023-01-13T08:18:12.737Z,97733.50
2023-01-13T08:20:39.553Z,97732.44
2023-01-13T08:23:12.688Z,97727.59
2023-01-13T08:25:39.436Z,97729.22
2023-01-13T08:28:12.698Z,97723.34
2023-01-13T08:30:39.721Z,97729.28
2023-01-13T08:33:08.709Z,97728.81
2023-01-13T08:35:46.666Z,97729.38
2023-01-13T08:38:13.550Z,97733.44
2023-01-13T08:40:40.675Z,97730.25
2023-01-13T08:43:13.669Z,97727.34
2023-01-13T08:45:46.947Z,97723.59
2023-01-13T08:48:19.728Z,97730.03
2023-01-13T08:50:46.448Z,97725.31
2023-01-13T08:53:13.011Z,97725.31
2023-01-13T08:55:46.653Z,97732.16
2023-01-13T08:58:16.081Z,97731.41
2023-01-13T09:00:43.339Z,97734.19
2023-01-13T09:03:16.735Z,97731.00
2023-01-13T09:05:43.514Z,97724.81
2023-01-13T09:08:16.620Z,97728.09
2023-01-13T09:10:43.441Z,97734.59
2023-01-13T09:13:20.638Z,97723.31
2023-01-13T09:15:56.882Z,97720.16
2023-01-13T09:18:30.630Z,97717.78
2023-01-13T09:21:10.015Z,97714.28
2023-01-13T09:23:43.642Z,97717.28
2023-01-13T09:26:12.120Z,97717.06
2023-01-13T09:28:45.601Z,97710.84
2023-01-13T09:31:12.355Z,97708.16
2023-01-13T09:34:04.566Z,97708.16
2023-01-13T09:36:37.783Z,97707.59
2023-01-13T09:39:04.437Z,97704.91
2023-01-13T09:41:59.682Z,97699.06
2023-01-13T09:44:46.748Z,97689.91
2023-01-13T09:47:42.783Z,97694.47
2023-01-13T09:50:22.170Z,97692.34
2023-01-13T09:52:55.881Z,97684.03
2023-01-13T09:55:36.936Z,97687.28
2023-01-13T09:58:24.817Z,97673.34
2023-01-13T10:01:15.652Z,97684.19
2023-01-13T10:03:42.799Z,97680.97
2023-01-13T10:06:24.574Z,97685.63
2023-01-13T10:08:55.662Z,97681.59
2023-01-13T10:11:49.576Z,97688.13
2023-01-13T10:14:19.300Z,97686.59
2023-01-13T10:17:24.579Z,97683.63
2023-01-13T10:20:12.317Z,97687.72
2023-01-13T10:23:15.062Z,97684.75
2023-01-13T10:25:54.858Z,97682.06
2023-01-13T10:28:23.954Z,97681.25
2023-01-13T10:30:57.630Z,97685.56
2023-01-13T10:33:28.453Z,97681.78
2023-01-13T10:36:19.683Z,97672.91
2023-01-13T10:38:48.700Z,97675.59
2023-01-13T10:41:15.457Z,97671.59
2023-01-13T10:44:04.643Z,97675.41
2023-01-13T10:46:35.340Z,97670.03
2023-01-13T10:49:29.807Z,97669.53
2023-01-13T10:52:03.623Z,97671.16
2023-01-13T10:54:37.709Z,97669.03
2023-01-13T10:57:22.881Z,97669.34
2023-01-13T10:59:57.819Z,97662.31
2023-01-13T11:02:37.586Z,97669.34
2023-01-13T11:05:24.629Z,97659.41
2023-01-13T11:08:01.528Z,97660.22
2023-01-13T11:10:31.436Z,97654.25
2023-01-13T11:13:18.755Z,97657.00
2023-01-13T11:16:24.970Z,97662.13
2023-01-13T11:19:14.776Z,97660.00
2023-01-13T11:22:14.661Z,97658.72
2023-01-13T11:25:01.565Z,97656.81
2023-01-13T11:27:49.736Z,97657.06
2023-01-13T11:30:46.539Z,97648.44
2023-01-13T11:33:16.587Z,97641.41
2023-01-13T11:36:00.458Z,97642.78
2023-01-13T11:38:54.469Z,97636.34
2023-01-13T11:41:49.561Z,97633.13
2023-01-13T11:44:16.342Z,97626.97
2023-01-13T11:46:49.591Z,97629.44
2023-01-13T11:49:30.535Z,97630.06
2023-01-13T11:52:30.485Z,97623.59
2023-01-13T11:55:10.724Z,97636.56
2023-01-13T11:57:52.418Z,97632.53
2023-01-13T12:00:39.556Z,97621.50
2023-01-13T12:03:35.822Z,97616.13
2023-01-13T12:06:36.593Z,97617.22
2023-01-13T12:09:51.552Z,97617.81
2023-01-13T12:12:33.992Z,97621.84
2023-01-13T12:15:19.475Z,97614.59
2023-01-13T12:18:13.728Z,97614.91
2023-01-13T12:20:46.548Z,97623.03
2023-01-13T12:23:35.588Z,97618.75
2023-01-13T12:26:13.764Z,97619.03
2023-01-13T12:28:55.594Z,97623.34
2023-01-13T12:31:23.666Z,97609.34
2023-01-13T12:34:36.520Z,97614.16
2023-01-13T12:37:17.386Z,97605.00
2023-01-13T12:40:10.671Z,97605.00
2023-01-13T12:43:28.447Z,97608.78
2023-01-13T12:46:30.496Z,97609.03
2023-01-13T12:49:04.640Z,97612.78
2023-01-13T12:51:40.436Z,97614.94
2023-01-13T12:54:45.068Z,97610.66
2023-01-13T12:57:29.604Z,97610.16
2023-01-13T13:00:04.992Z,97610.69
2023-01-13T13:02:44.223Z,97607.25
2023-01-13T13:05:22.830Z,97597.56
2023-01-13T13:08:26.616Z,97607.00
2023-01-13T13:11:05.263Z,97611.06
2023-01-13T13:14:09.575Z,97612.69
2023-01-13T13:17:07.368Z,97613.81
2023-01-13T13:19:40.490Z,97613.56
2023-01-13T13:22:13.258Z,97614.94
2023-01-13T13:24:48.629Z,97608.47
2023-01-13T13:27:29.449Z,97610.59
2023-01-13T13:30:07.603Z,97614.66
2023-01-13T13:32:58.544Z,97608.47
2023-01-13T13:36:05.513Z,97600.38
2023-01-13T13:39:21.452Z,97613.34
2023-01-13T13:42:17.487Z,97613.56
2023-01-13T13:45:07.237Z,97616.53
2023-01-13T13:47:45.404Z,97617.06
2023-01-13T13:50:27.365Z,97618.69
2023-01-13T13:53:13.564Z,97619.75
2023-01-13T13:55:58.359Z,97625.94
2023-01-13T13:58:26.728Z,97625.94
2023-01-13T14:01:01.456Z,97623.53
2023-01-13T14:03:41.425Z,97633.75
2023-01-13T14:06:21.691Z,97615.94
2023-01-13T14:08:57.423Z,97632.94
2023-01-13T14:11:32.578Z,97626.16
2023-01-13T14:14:13.347Z,97628.84
2023-01-13T14:16:47.301Z,97636.41
2023-01-13T14:19:45.928Z,97638.00
2023-01-13T14:22:23.340Z,97638.97
2023-01-13T14:24:55.753Z,97633.50
2023-01-13T14:27:30.243Z,97642.88
2023-01-13T14:30:06.273Z,97643.66
2023-01-13T14:32:36.577Z,97638.75
2023-01-13T14:35:13.399Z,97644.06
2023-01-13T14:37:42.823Z,97634.81
2023-01-13T14:40:54.299Z,97641.22
2023-01-13T14:43:31.193Z,97634.91
2023-01-13T14:46:11.534Z,97639.66
2023-01-13T14:48:46.238Z,97647.13
2023-01-13T14:51:28.267Z,97644.34
2023-01-13T14:53:55.608Z,97646.13
2023-01-13T14:56:47.481Z,97649.28
2023-01-13T14:59:51.896Z,97638.88
2023-01-13T15:02:37.485Z,97643.88
2023-01-13T15:05:19.421Z,97632.44
2023-01-13T15:08:00.268Z,97641.41
2023-01-13T15:10:30.607Z,97642.88
2023-01-13T15:13:07.942Z,97645.41
2023-01-13T15:15:55.276Z,97637.94
2023-01-13T15:18:28.335Z,97643.16
2023-01-13T15:21:02.163Z,97641.94
2023-01-13T15:23:35.305Z,97641.16
2023-01-13T15:26:08.241Z,97647.97
2023-01-13T15:28:34.952Z,97645.09
2023-01-13T15:31:04.041Z,97646.81
2023-01-13T15:33:37.208Z,97633.75
2023-01-13T15:36:05.870Z,97643.63
2023-01-13T15:38:32.539Z,97640.97
2023-01-13T15:41:06.242Z,97649.31
2023-01-13T15:43:51.481Z,97656.19
2023-01-13T15:46:44.379Z,97649.22
2023-01-13T15:49:35.102Z,97654.50
2023-01-13T15:52:22.263Z,97654.88
2023-01-13T15:54:49.877Z,97646.34
2023-01-13T15:57:32.304Z,97648.34
2023-01-13T16:00:08.175Z,97649.88
2023-01-13T16:02:34.935Z,97655.94
2023-01-13T16:05:02.023Z,97639.41
2023-01-13T16:07:35.259Z,97647.44
2023-01-13T16:10:04.963Z,97647.31
2023-01-13T16:12:39.207Z,97650.50
2023-01-13T16:15:13.906Z,97653.19
2023-01-13T16:17:48.282Z,97657.13
2023-01-13T16:20:18.629Z,97642.56
2023-01-13T16:22:52.274Z,97654.44
2023-01-13T16:25:21.719Z,97652.22
2023-01-13T16:27:49.217Z,97668.41
2023-01-13T16:30:36.329Z,97656.06
2023-01-13T16:33:03.859Z,97651.88
2023-01-13T16:35:32.284Z,97655.16
2023-01-13T16:38:06.363Z,97647.09
2023-01-13T16:40:43.248Z,97642.31
2023-01-13T16:43:20.192Z,97643.47
2023-01-13T16:45:46.969Z,97639.41
2023-01-13T16:48:27.249Z,97644.88
2023-01-13T16:50:54.253Z,97636.28
2023-01-13T16:53:20.855Z,97639.50
2023-01-13T16:55:54.323Z,97628.34
2023-01-13T16:58:21.475Z,97627.53
2023-01-13T17:00:55.304Z,97631.38
2023-01-13T17:03:28.169Z,97634.06
2023-01-13T17:05:54.807Z,97636.72
2023-01-13T17:08:28.429Z,97628.91
2023-01-13T17:11:02.279Z,97628.91
2023-01-13T17:13:28.898Z,97630.56
2023-01-13T17:16:09.272Z,97625.66
2023-01-13T17:18:35.867Z,97611.94
2023-01-13T17:21:02.723Z,97623.22
2023-01-13T17:23:38.298Z,97619.84
2023-01-13T17:26:05.539Z,97619.03
2023-01-13T17:28:39.270Z,97617.63
2023-01-13T17:31:05.981Z,97623.00
2023-01-13T17:33:37.173Z,97609.47
2023-01-13T17:36:11.222Z,97616.47
2023-01-13T17:38:44.337Z,97626.59
2023-01-13T17:41:11.001Z,97630.34
2023-01-13T17:43:44.901Z,97638.03
2023-01-13T17:46:13.016Z,97621.50
2023-01-13T17:48:40.093Z,97629.19
2023-01-13T17:51:26.834Z,97625.31
2023-01-13T17:53:55.025Z,97633.25
2023-01-13T17:56:28.075Z,97629.06
2023-01-13T17:58:54.909Z,97623.81
2023-01-13T18:01:29.129Z,97619.59
2023-01-13T18:04:02.358Z,97620.53
2023-01-13T18:06:29.361Z,97631.94
2023-01-13T18:08:58.344Z,97627.28
2023-01-13T18:11:32.195Z,97631.91
2023-01-13T18:14:00.158Z,97623.06
2023-01-13T18:16:44.625Z,97619.41
2023-01-13T18:19:41.037Z,97634.22
2023-01-13T18:22:38.407Z,97623.00
2023-01-13T18:25:31.050Z,97621.81
2023-01-13T18:28:00.728Z,97616.25
2023-01-13T18:30:34.112Z,97631.31
2023-01-13T18:33:00.903Z,97626.41
2023-01-13T18:35:27.638Z,97624.69
2023-01-13T18:38:01.033Z,97617.91
2023-01-13T18:40:27.734Z,97617.53
2023-01-13T18:43:01.224Z,97628.69
2023-01-13T18:45:30.831Z,97629.13
2023-01-13T18:48:07.343Z,97623.06
2023-01-13T18:50:45.106Z,97625.59
2023-01-13T18:53:12.044Z,97612.91
2023-01-13T18:55:38.798Z,97624.88
2023-01-13T18:58:12.035Z,97615.06
2023-01-13T19:00:38.803Z,97612.69
2023-01-13T19:05:41.224Z,97611.44
2023-01-13T19:08:14.005Z,97617.22
2023-01-13T19:10:40.752Z,97614.44
2023-01-13T19:13:07.538Z,97608.72
2023-01-13T19:15:44.013Z,97614.88
2023-01-13T19:18:24.087Z,97618.22
2023-01-13T19:20:50.731Z,97623.09
2023-01-13T19:23:17.906Z,97619.03
2023-01-13T19:25:51.196Z,97618.66
2023-01-13T19:28:24.004Z,97618.06
2023-01-13T19:30:51.862Z,97624.66
2023-01-13T19:33:25.160Z,97624.88
2023-01-13T19:35:55.060Z,97621.03
2023-01-13T19:38:22.420Z,97619.59
2023-01-13T19:41:04.227Z,97614.94
2023-01-13T19:43:56.979Z,97630.28
2023-01-13T19:46:33.196Z,97638.53
2023-01-13T19:49:05.965Z,97629.72
2023-01-13T19:51:32.603Z,97626.22
2023-01-13T19:54:08.373Z,97622.94
2023-01-13T19:56:35.151Z,97606.78
2023-01-13T19:59:08.181Z,97620.03
2023-01-13T20:01:37.592Z,97628.66
2023-01-13T20:04:05.749Z,97622.94
2023-01-13T20:06:42.148Z,97619.28
2023-01-13T20:09:08.829Z,97620.13
2023-01-13T20:11:36.465Z,97623.81
2023-01-13T20:14:10.221Z,97611.50
2023-01-13T20:16:43.435Z,97612.56
2023-01-13T20:19:17.099Z,97623.06
2023-01-13T20:21:43.976Z,97616.53
2023-01-13T20:24:24.079Z,97620.25
2023-01-13T20:26:50.850Z,97617.44
2023-01-13T20:29:23.954Z,97622.56
2023-01-13T20:31:50.861Z,97625.66
2023-01-13T20:34:20.868Z,97620.53
2023-01-13T20:36:56.264Z,97611.78
2023-01-13T20:39:26.325Z,97611.56
2023-01-13T20:42:22.283Z,97615.50
2023-01-13T20:44:49.622Z,97616.69
2023-01-13T20:47:16.464Z,97603.97
2023-01-13T20:49:50.235Z,97603.53
2023-01-13T20:52:20.198Z,97603.41
2023-01-13T20:54:53.138Z,97608.13
2023-01-13T20:57:19.758Z,97609.41
2023-01-13T20:59:46.605Z,97612.50
2023-01-13T21:02:22.116Z,97617.47
2023-01-13T21:04:49.099Z,97622.38
2023-01-13T21:07:18.185Z,97622.38
2023-01-13T21:09:50.994Z,97618.66
2023-01-13T21:12:39.530Z,97620.72
2023-01-13T21:15:28.984Z,97619.69
2023-01-13T21:18:17.242Z,97617.91
2023-01-13T21:20:58.037Z,97621.59
2023-01-13T21:23:24.679Z,97618.56
2023-01-13T21:26:05.020Z,97622.41
2023-01-13T21:28:40.840Z,97621.81
2023-01-13T21:31:16.107Z,97617.28
2023-01-13T21:33:49.866Z,97616.03
2023-01-13T21:36:30.012Z,97622.63
2023-01-13T21:38:58.729Z,97624.09
2023-01-13T21:41:52.200Z,97620.41
2023-01-13T21:44:39.455Z,97627.38
2023-01-13T21:47:40.129Z,97620.59
2023-01-13T21:50:10.372Z,97628.03
2023-01-13T21:52:37.743Z,97623.31
2023-01-13T21:55:23.953Z,97624.75
2023-01-13T21:58:15.136Z,97626.59
2023-01-13T22:00:50.951Z,97635.28
2023-01-13T22:03:20.534Z,97628.94
2023-01-13T22:06:06.927Z,97626.25
2023-01-13T22:08:35.751Z,97632.84
2023-01-13T22:11:02.882Z,97628.78
2023-01-13T22:13:54.902Z,97627.34
2023-01-13T22:16:28.311Z,97632.91
2023-01-13T22:19:03.977Z,97636.41
2023-01-13T22:21:30.704Z,97632.69
2023-01-13T22:24:03.774Z,97633.50
2023-01-13T22:26:30.470Z,97622.44
2023-01-13T22:29:04.777Z,97617.94
2023-01-13T22:31:31.938Z,97620.41
2023-01-13T22:34:04.803Z,97619.34
2023-01-13T22:36:31.411Z,97621.16
2023-01-13T22:39:00.286Z,97617.44
2023-01-13T22:41:33.751Z,97605.19
2023-01-13T22:44:00.430Z,97619.97
2023-01-13T22:46:27.250Z,97614.69
2023-01-13T22:49:02.774Z,97609.78
2023-01-13T22:51:30.633Z,97607.09
2023-01-13T22:54:03.740Z,97584.22
2023-01-13T22:56:36.780Z,97607.50
2023-01-13T22:59:05.005Z,97612.41
2023-01-13T23:01:40.955Z,97608.47
2023-01-13T23:04:14.860Z,97613.41
2023-01-13T23:06:41.719Z,97618.31
2023-01-13T23:09:16.808Z,97614.25
2023-01-13T23:11:43.606Z,97617.72
2023-01-13T23:14:12.494Z,97620.97
2023-01-13T23:16:47.103Z,97627.34
2023-01-13T23:19:22.932Z,97630.63
2023-01-13T23:21:49.724Z,97618.31
2023-01-13T23:24:16.686Z,97625.50
2023-01-13T23:26:49.750Z,97614.25
2023-01-13T23:29:22.970Z,97622.41
2023-01-13T23:31:49.794Z,97613.59
2023-01-13T23:34:22.777Z,97619.31
2023-01-13T23:36:55.976Z,97609.50
2023-01-13T23:39:30.732Z,97620.16
2023-01-13T23:42:05.835Z,97605.88
2023-01-13T23:44:38.691Z,97621.63
2023-01-13T23:47:11.924Z,97617.53
2023-01-13T23:49:45.722Z,97610.19
2023-01-13T23:52:12.437Z,97618.81
2023-01-13T23:54:45.717Z,97619.41
2023-01-13T23:57:12.451Z,97613.88
2023-01-13T23:59:45.670Z,97608.56
